Time;durP1;ratioP1;P1;durP2;ratioP2;P2;SDS_P1;SDS_P2;PMS_P1;PMS_P2;Temp;Humidity;BMP_temperature;BMP_pressure;BME280_temperature;BME280_humidity;BME280_pressure;Samples;Min_cycle;Max_cycle;Signal;HPM_P1;HPM_P2
2022/01/31 00:01:50;;;;;;;17.23;8.88;;;;;;;;;;5096304;28;20030;-67
2022/01/31 00:04:16;;;;;;;19.23;10.07;;;;;;;;;;5096553;28;20024;-67
2022/01/31 00:06:47;;;;;;;19.45;10.23;;;;;;;;;;5096567;28;20384;-66
2022/01/31 00:09:15;;;;;;;19.15;11.20;;;;;;;;;;5096191;28;20422;-66
2022/01/31 00:11:44;;;;;;;20.80;11.15;;;;;;;;;;5096481;28;20108;-66
2022/01/31 00:14:28;;;;;;;21.08;11.27;;;;;;;;;;5094722;28;20438;-66
2022/01/31 00:16:54;;;;;;;19.20;11.45;;;;;;;;;;5096770;28;20032;-67
2022/01/31 00:19:20;;;;;;;22.42;12.15;;;;;;;;;;5096289;28;20020;-67
2022/01/31 00:21:46;;;;;;;23.40;13.55;;;;;;;;;;5096071;28;20024;-66
2022/01/31 00:24:13;;;;;;;26.35;14.35;;;;;;;;;;5096196;28;20586;-67
2022/01/31 00:26:39;;;;;;;19.98;12.98;;;;;;;;;;5096132;28;20031;-67
2022/01/31 00:29:05;;;;;;;23.92;13.18;;;;;;;;;;5095401;28;20028;-66
2022/01/31 00:31:32;;;;;;;22.42;12.73;;;;;;;;;;5095980;28;20027;-66
2022/01/31 00:33:58;;;;;;;21.27;12.73;;;;;;;;;;5096010;28;20103;-66
2022/01/31 00:36:24;;;;;;;22.20;12.23;;;;;;;;;;5095568;28;20028;-66
2022/01/31 00:38:51;;;;;;;23.55;12.63;;;;;;;;;;5095952;28;20027;-66
2022/01/31 00:41:17;;;;;;;23.08;12.13;;;;;;;;;;5095947;28;20085;-66
2022/01/31 00:43:54;;;;;;;36.78;16.73;;;;;;;;;;5094147;28;20107;-66
2022/01/31 00:46:26;;;;;;;40.90;19.00;;;;;;;;;;5096013;28;20069;-66
2022/01/31 00:48:52;;;;;;;35.67;17.92;;;;;;;;;;5096051;28;20048;-66
2022/01/31 00:51:18;;;;;;;31.52;16.85;;;;;;;;;;5093993;28;20027;-66
2022/01/31 00:53:45;;;;;;;27.63;13.82;;;;;;;;;;5095667;28;20020;-66
2022/01/31 00:56:11;;;;;;;18.58;10.35;;;;;;;;;;5093937;28;20454;-66
2022/01/31 00:58:37;;;;;;;21.85;11.65;;;;;;;;;;5095860;28;20095;-66
2022/01/31 01:01:03;;;;;;;23.58;12.82;;;;;;;;;;5095432;28;20024;-66
2022/01/31 01:03:29;;;;;;;29.27;14.88;;;;;;;;;;5095281;28;20173;-66
2022/01/31 01:05:56;;;;;;;27.92;13.50;;;;;;;;;;5095449;28;20075;-66
2022/01/31 01:08:22;;;;;;;24.38;12.90;;;;;;;;;;5095330;28;20032;-66
2022/01/31 01:10:48;;;;;;;22.08;13.40;;;;;;;;;;5094950;28;20031;-66
2022/01/31 01:13:14;;;;;;;28.23;14.95;;;;;;;;;;5095261;28;20020;-66
2022/01/31 01:15:40;;;;;;;24.70;13.98;;;;;;;;;;5095435;28;20371;-66
2022/01/31 01:18:07;;;;;;;33.95;15.70;;;;;;;;;;5094763;28;20021;-66
2022/01/31 01:20:33;;;;;;;38.70;20.77;;;;;;;;;;5095088;28;20426;-66
2022/01/31 01:22:59;;;;;;;41.45;20.27;;;;;;;;;;5094984;28;20020;-66
2022/01/31 01:25:25;;;;;;;30.52;14.48;;;;;;;;;;5093386;28;20481;-66
2022/01/31 01:27:53;;;;;;;32.58;17.48;;;;;;;;;;5095485;28;20024;-66
2022/01/31 01:30:20;;;;;;;27.23;15.23;;;;;;;;;;5094898;28;20043;-66
2022/01/31 01:33:06;;;;;;;39.88;20.70;;;;;;;;;;5094449;28;20038;-66
2022/01/31 01:35:34;;;;;;;46.58;23.60;;;;;;;;;;5093512;28;20028;-66
2022/01/31 01:38:06;;;;;;;39.05;20.83;;;;;;;;;;5094895;28;20099;-66
2022/01/31 01:40:39;;;;;;;22.50;12.82;;;;;;;;;;5093820;28;20432;-66
2022/01/31 01:43:06;;;;;;;21.63;9.98;;;;;;;;;;5093348;28;20111;-66
2022/01/31 01:45:32;;;;;;;23.80;11.15;;;;;;;;;;5094188;28;20028;-66
2022/01/31 01:47:59;;;;;;;23.83;12.13;;;;;;;;;;5094573;28;20469;-66
2022/01/31 01:50:25;;;;;;;20.90;11.55;;;;;;;;;;5094736;28;20024;-66
2022/01/31 01:52:55;;;;;;;28.13;12.80;;;;;;;;;;5092807;28;20400;-66
2022/01/31 01:55:21;;;;;;;25.83;12.55;;;;;;;;;;5094314;28;20120;-66
2022/01/31 01:57:48;;;;;;;21.50;12.18;;;;;;;;;;5094691;28;20027;-66
2022/01/31 02:00:18;;;;;;;26.25;12.68;;;;;;;;;;5093901;28;20388;-66
2022/01/31 02:02:45;;;;;;;23.55;11.25;;;;;;;;;;5094360;28;20537;-66
2022/01/31 02:05:11;;;;;;;20.33;10.73;;;;;;;;;;5094255;28;20028;-66
2022/01/31 02:07:38;;;;;;;21.58;9.75;;;;;;;;;;5094111;28;20020;-66
2022/01/31 02:10:06;;;;;;;14.68;8.23;;;;;;;;;;5092986;28;20104;-66
2022/01/31 02:12:46;;;;;;;21.90;10.68;;;;;;;;;;5094225;28;20115;-66
2022/01/31 02:15:13;;;;;;;22.92;10.77;;;;;;;;;;5093676;28;20036;-66
2022/01/31 02:17:40;;;;;;;19.92;10.68;;;;;;;;;;5094086;28;20104;-66
2022/01/31 02:20:07;;;;;;;23.40;11.45;;;;;;;;;;5093961;28;20059;-66
2022/01/31 02:22:34;;;;;;;24.83;11.98;;;;;;;;;;5093521;28;20480;-66
2022/01/31 02:25:00;;;;;;;22.70;11.48;;;;;;;;;;5093856;28;20419;-67
2022/01/31 02:27:27;;;;;;;22.90;11.95;;;;;;;;;;5093881;28;20024;-66
2022/01/31 02:29:54;;;;;;;22.38;11.02;;;;;;;;;;5093458;28;20020;-66
2022/01/31 02:32:22;;;;;;;19.73;10.70;;;;;;;;;;5093744;28;20107;-66
2022/01/31 02:34:48;;;;;;;19.33;9.35;;;;;;;;;;5093272;28;20020;-66
2022/01/31 02:37:14;;;;;;;18.25;9.63;;;;;;;;;;5092512;28;20488;-66
2022/01/31 02:39:41;;;;;;;17.77;9.02;;;;;;;;;;5093686;28;20500;-66
2022/01/31 02:42:07;;;;;;;17.80;9.45;;;;;;;;;;5093336;28;20020;-66
2022/01/31 02:44:34;;;;;;;22.65;9.43;;;;;;;;;;5093701;28;20496;-66
2022/01/31 02:47:00;;;;;;;17.20;8.93;;;;;;;;;;5093615;28;20440;-66
2022/01/31 02:49:34;;;;;;;20.27;8.95;;;;;;;;;;5093095;28;20081;-66
2022/01/31 02:52:02;;;;;;;17.23;10.57;;;;;;;;;;5093378;28;20480;-66
2022/01/31 02:54:32;;;;;;;26.00;11.93;;;;;;;;;;5093258;28;20107;-66
2022/01/31 02:56:58;;;;;;;18.95;9.77;;;;;;;;;;5093564;28;20470;-66
2022/01/31 02:59:24;;;;;;;18.38;8.70;;;;;;;;;;5093487;28;20114;-66
2022/01/31 03:01:51;;;;;;;21.77;9.32;;;;;;;;;;5093883;28;20028;-66
2022/01/31 03:04:17;;;;;;;19.08;10.25;;;;;;;;;;5093063;28;20541;-66
2022/01/31 03:06:49;;;;;;;21.95;12.23;;;;;;;;;;5093966;28;20028;-66
2022/01/31 03:09:15;;;;;;;24.73;10.40;;;;;;;;;;5092119;28;20111;-66
2022/01/31 03:11:41;;;;;;;24.48;10.95;;;;;;;;;;5092938;28;20024;-66
2022/01/31 03:14:08;;;;;;;20.42;10.50;;;;;;;;;;5093263;28;20020;-66
2022/01/31 03:16:39;;;;;;;22.20;10.90;;;;;;;;;;5093259;28;20032;-66
2022/01/31 03:19:05;;;;;;;24.95;11.65;;;;;;;;;;5092989;28;20146;-66
2022/01/31 03:21:32;;;;;;;22.08;10.52;;;;;;;;;;5093276;28;20537;-66
2022/01/31 03:23:58;;;;;;;19.75;10.10;;;;;;;;;;5092841;28;20025;-66
2022/01/31 03:26:24;;;;;;;20.58;10.30;;;;;;;;;;5093256;28;20026;-66
2022/01/31 03:28:53;;;;;;;20.88;10.05;;;;;;;;;;5091952;28;20494;-66
2022/01/31 03:31:19;;;;;;;21.17;12.18;;;;;;;;;;5093058;28;20354;-66
2022/01/31 03:33:46;;;;;;;24.30;12.52;;;;;;;;;;5093467;28;20027;-66
2022/01/31 03:36:12;;;;;;;19.85;12.73;;;;;;;;;;5093147;28;20056;-66
2022/01/31 03:38:41;;;;;;;26.30;13.98;;;;;;;;;;5092732;28;20523;-66
2022/01/31 03:41:11;;;;;;;23.48;11.75;;;;;;;;;;5093012;28;20036;-66
2022/01/31 03:43:37;;;;;;;23.45;12.00;;;;;;;;;;5092983;28;20426;-66
2022/01/31 03:46:04;;;;;;;31.15;12.93;;;;;;;;;;5092653;28;20024;-66
2022/01/31 03:48:30;;;;;;;18.02;10.73;;;;;;;;;;5093297;28;20028;-66
2022/01/31 03:50:58;;;;;;;20.20;10.40;;;;;;;;;;5092972;28;20020;-66
2022/01/31 03:53:24;;;;;;;20.10;9.75;;;;;;;;;;5091357;28;20024;-67
2022/01/31 03:55:50;;;;;;;15.57;9.52;;;;;;;;;;5091409;28;20040;-66
2022/01/31 03:58:17;;;;;;;17.88;9.35;;;;;;;;;;5092946;28;20110;-66
2022/01/31 04:00:43;;;;;;;22.45;9.95;;;;;;;;;;5092559;28;20081;-66
2022/01/31 04:03:09;;;;;;;16.65;9.55;;;;;;;;;;5093563;28;20101;-66
2022/01/31 04:05:39;;;;;;;21.13;9.45;;;;;;;;;;5096605;28;20028;-66
2022/01/31 04:08:05;;;;;;;24.65;9.70;;;;;;;;;;5096225;28;20024;-66
2022/01/31 04:10:31;;;;;;;17.00;7.38;;;;;;;;;;5096510;28;20024;-66
2022/01/31 04:12:58;;;;;;;15.93;7.68;;;;;;;;;;5096394;28;20027;-66
2022/01/31 04:15:24;;;;;;;17.77;8.23;;;;;;;;;;5096134;28;20423;-66
2022/01/31 04:17:50;;;;;;;12.40;6.15;;;;;;;;;;5096352;28;20024;-66
2022/01/31 04:20:18;;;;;;;14.32;6.57;;;;;;;;;;5095877;28;20428;-66
2022/01/31 04:22:56;;;;;;;15.43;6.15;;;;;;;;;;5096275;28;20081;-66
2022/01/31 04:25:43;;;;;;;11.30;5.32;;;;;;;;;;5096467;28;20024;-66
2022/01/31 04:28:25;;;;;;;12.80;5.78;;;;;;;;;;5094481;28;20475;-66
2022/01/31 04:31:11;;;;;;;14.57;6.55;;;;;;;;;;5096084;28;20023;-66
2022/01/31 04:33:38;;;;;;;12.23;5.63;;;;;;;;;;5094683;28;20034;-66
2022/01/31 04:36:04;;;;;;;18.15;7.65;;;;;;;;;;5095503;28;20133;-66
2022/01/31 04:38:31;;;;;;;21.85;10.02;;;;;;;;;;5095951;28;20031;-66
2022/01/31 04:40:57;;;;;;;21.45;9.85;;;;;;;;;;5096042;28;20078;-66
2022/01/31 04:43:23;;;;;;;18.70;9.25;;;;;;;;;;5095445;28;20069;-66
2022/01/31 04:45:50;;;;;;;26.95;13.38;;;;;;;;;;5095799;28;20039;-66
2022/01/31 04:48:17;;;;;;;22.98;12.00;;;;;;;;;;5095807;28;20020;-66
2022/01/31 04:50:43;;;;;;;28.40;13.13;;;;;;;;;;5095658;28;20031;-66
2022/01/31 04:53:10;;;;;;;28.92;14.45;;;;;;;;;;5095926;28;20023;-66
2022/01/31 04:55:36;;;;;;;35.47;15.55;;;;;;;;;;5094949;28;20130;-66
2022/01/31 04:58:03;;;;;;;35.78;16.55;;;;;;;;;;5096118;28;20467;-66
2022/01/31 05:00:29;;;;;;;31.30;14.07;;;;;;;;;;5095497;28;20099;-66
2022/01/31 05:02:56;;;;;;;42.45;19.05;;;;;;;;;;5093843;28;20090;-66
2022/01/31 05:05:22;;;;;;;25.88;12.75;;;;;;;;;;5095462;28;20047;-67
2022/01/31 05:07:51;;;;;;;33.88;17.23;;;;;;;;;;5095425;28;20027;-66
2022/01/31 05:10:17;;;;;;;31.05;16.48;;;;;;;;;;5094963;28;20027;-67
2022/01/31 05:12:43;;;;;;;24.23;13.63;;;;;;;;;;5095338;28;20516;-69
2022/01/31 05:15:10;;;;;;;22.75;10.68;;;;;;;;;;5095203;28;20032;-67
2022/01/31 05:17:36;;;;;;;20.75;10.50;;;;;;;;;;5094850;28;20071;-67
2022/01/31 05:20:03;;;;;;;21.77;9.90;;;;;;;;;;5095110;28;20045;-65
2022/01/31 05:22:29;;;;;;;33.78;18.33;;;;;;;;;;5093800;28;20149;-65
2022/01/31 05:24:55;;;;;;;44.80;21.67;;;;;;;;;;5094503;28;20026;-66
2022/01/31 05:27:21;;;;;;;35.28;18.67;;;;;;;;;;5094894;28;20017;-66
2022/01/31 05:29:53;;;;;;;29.85;15.93;;;;;;;;;;5094107;28;20439;-65
2022/01/31 05:32:19;;;;;;;30.20;16.75;;;;;;;;;;5094542;28;20035;-66
2022/01/31 05:34:45;;;;;;;50.70;29.55;;;;;;;;;;5094595;28;20415;-66
2022/01/31 05:37:11;;;;;;;34.15;14.73;;;;;;;;;;5093454;28;20028;-66
2022/01/31 05:39:39;;;;;;;31.33;13.32;;;;;;;;;;5094351;28;20024;-66
2022/01/31 05:42:05;;;;;;;27.85;13.73;;;;;;;;;;5094631;28;20020;-66
2022/01/31 05:44:31;;;;;;;40.33;21.70;;;;;;;;;;5095023;28;20372;-66
2022/01/31 05:47:00;;;;;;;31.75;15.95;;;;;;;;;;5094537;28;20028;-66
2022/01/31 05:49:26;;;;;;;43.50;19.17;;;;;;;;;;5094422;28;20039;-66
2022/01/31 05:52:01;;;;;;;37.08;16.75;;;;;;;;;;5094024;28;20032;-66
2022/01/31 05:54:28;;;;;;;40.58;16.40;;;;;;;;;;5094248;28;20012;-66
2022/01/31 05:56:58;;;;;;;36.25;14.65;;;;;;;;;;5094599;28;20493;-66
2022/01/31 05:59:24;;;;;;;34.58;18.88;;;;;;;;;;5093897;28;20537;-66
2022/01/31 06:01:51;;;;;;;33.80;19.00;;;;;;;;;;5094263;28;20035;-66
2022/01/31 06:04:17;;;;;;;53.10;22.92;;;;;;;;;;5094293;28;20103;-66
2022/01/31 06:06:44;;;;;;;75.28;35.33;;;;;;;;;;5093749;28;20051;-66
2022/01/31 06:09:10;;;;;;;105.03;50.22;;;;;;;;;;5092826;28;20388;-66
2022/01/31 06:11:36;;;;;;;106.63;47.50;;;;;;;;;;5094192;28;20430;-66
2022/01/31 06:14:03;;;;;;;89.20;41.78;;;;;;;;;;5093732;28;20020;-65
2022/01/31 06:16:30;;;;;;;81.65;39.25;;;;;;;;;;5094280;28;20036;-66
2022/01/31 06:18:57;;;;;;;73.28;38.67;;;;;;;;;;5093730;28;20182;-74
2022/01/31 06:21:23;;;;;;;69.15;36.47;;;;;;;;;;5093601;28;20028;-73
2022/01/31 06:23:49;;;;;;;73.35;38.85;;;;;;;;;;5093916;28;20021;-73
2022/01/31 06:26:15;;;;;;;67.07;37.38;;;;;;;;;;5093493;28;20474;-71
2022/01/31 06:28:42;;;;;;;79.35;41.00;;;;;;;;;;5093345;28;20024;-65
2022/01/31 06:31:08;;;;;;;84.28;43.50;;;;;;;;;;5093824;28;20016;-66
2022/01/31 06:33:34;;;;;;;83.55;42.92;;;;;;;;;;5093733;28;20048;-66
2022/01/31 06:36:01;;;;;;;99.97;52.97;;;;;;;;;;5088330;28;20028;-65
2022/01/31 06:38:28;;;;;;;121.68;60.63;;;;;;;;;;5093116;28;20099;-65
2022/01/31 06:40:55;;;;;;;107.68;59.85;;;;;;;;;;5091931;28;20101;-64
2022/01/31 06:43:21;;;;;;;101.53;52.72;;;;;;;;;;5093551;28;20024;-67
2022/01/31 06:45:47;;;;;;;107.40;57.00;;;;;;;;;;5093244;28;20039;-66
2022/01/31 06:48:13;;;;;;;120.93;65.32;;;;;;;;;;5093168;28;20107;-68
2022/01/31 06:50:40;;;;;;;138.82;69.43;;;;;;;;;;5091928;28;20440;-66
2022/01/31 06:53:06;;;;;;;143.13;69.60;;;;;;;;;;5093356;28;20024;-66
2022/01/31 06:55:34;;;;;;;133.38;69.55;;;;;;;;;;5091563;28;20044;-68
2022/01/31 06:58:02;;;;;;;140.55;71.13;;;;;;;;;;5091899;28;20020;-67
2022/01/31 07:00:28;;;;;;;193.88;91.93;;;;;;;;;;5093197;28;20020;-66
2022/01/31 07:02:55;;;;;;;166.13;85.85;;;;;;;;;;5092865;28;20028;-67
2022/01/31 07:05:21;;;;;;;140.55;74.57;;;;;;;;;;5093261;28;20548;-67
2022/01/31 07:07:48;;;;;;;116.10;63.97;;;;;;;;;;5093223;28;20024;-66
2022/01/31 07:10:15;;;;;;;119.80;62.95;;;;;;;;;;5092837;28;20020;-66
2022/01/31 07:12:48;;;;;;;101.53;52.80;;;;;;;;;;5093025;28;20061;-64
2022/01/31 07:15:14;;;;;;;83.38;42.65;;;;;;;;;;5093157;28;20063;-66
2022/01/31 07:17:41;;;;;;;91.60;40.47;;;;;;;;;;5092468;28;20043;-65
2022/01/31 07:20:10;;;;;;;98.50;42.65;;;;;;;;;;5091790;28;20384;-66
2022/01/31 07:22:39;;;;;;;78.05;34.90;;;;;;;;;;5092027;28;20372;-66
2022/01/31 07:25:09;;;;;;;58.60;29.52;;;;;;;;;;5091380;28;20385;-66
2022/01/31 07:27:36;;;;;;;42.33;20.67;;;;;;;;;;5093271;28;20024;-66
2022/01/31 07:30:03;;;;;;;22.98;12.30;;;;;;;;;;5092991;28;20479;-66
2022/01/31 07:32:29;;;;;;;16.65;8.70;;;;;;;;;;5092833;28;20389;-66
2022/01/31 07:34:56;;;;;;;15.98;8.23;;;;;;;;;;5093144;28;20028;-66
2022/01/31 07:37:23;;;;;;;16.30;8.48;;;;;;;;;;5093144;28;20099;-65
2022/01/31 07:39:50;;;;;;;20.45;9.93;;;;;;;;;;5096865;28;20020;-66
2022/01/31 07:42:16;;;;;;;38.80;19.10;;;;;;;;;;5096792;28;20476;-65
2022/01/31 07:44:42;;;;;;;37.15;17.10;;;;;;;;;;5096229;28;20103;-65
2022/01/31 07:47:09;;;;;;;30.60;14.20;;;;;;;;;;5095429;28;20027;-66
2022/01/31 07:49:35;;;;;;;31.67;15.90;;;;;;;;;;5096191;28;20017;-64
2022/01/31 07:52:01;;;;;;;34.78;17.80;;;;;;;;;;5096117;28;20036;-67
2022/01/31 07:54:28;;;;;;;31.08;16.52;;;;;;;;;;5096287;28;20088;-66
2022/01/31 07:56:56;;;;;;;28.23;15.23;;;;;;;;;;5095288;28;20096;-66
2022/01/31 07:59:22;;;;;;;19.40;10.45;;;;;;;;;;5095109;28;20044;-66
2022/01/31 08:01:49;;;;;;;21.27;10.48;;;;;;;;;;5096535;28;20073;-67
2022/01/31 08:04:15;;;;;;;13.27;6.15;;;;;;;;;;5095070;28;20020;-67
2022/01/31 08:06:41;;;;;;;18.90;8.38;;;;;;;;;;5094501;28;20028;-67
2022/01/31 08:09:07;;;;;;;20.95;8.00;;;;;;;;;;5094509;28;20051;-66
2022/01/31 08:11:35;;;;;;;18.42;8.05;;;;;;;;;;5094207;28;20031;-68
2022/01/31 08:14:06;;;;;;;15.80;7.13;;;;;;;;;;5093769;28;20024;-67
2022/01/31 08:16:35;;;;;;;12.82;5.60;;;;;;;;;;5094099;28;20479;-68
2022/01/31 08:19:02;;;;;;;17.08;5.63;;;;;;;;;;5095273;28;20020;-67
2022/01/31 08:21:28;;;;;;;8.25;3.85;;;;;;;;;;5093861;28;20100;-67
2022/01/31 08:23:54;;;;;;;8.88;3.17;;;;;;;;;;5093522;28;20020;-66
2022/01/31 08:26:21;;;;;;;8.07;3.30;;;;;;;;;;5093431;28;20093;-66
2022/01/31 08:28:58;;;;;;;20.60;7.05;;;;;;;;;;5093788;28;20016;-67
2022/01/31 08:31:37;;;;;;;18.38;5.72;;;;;;;;;;5093978;28;20358;-68
2022/01/31 08:36:43;;;;;;;13.98;6.63;;;;;;;;;;5089559;28;20793;-67
2022/01/31 08:39:17;;;;;;;20.55;7.57;;;;;;;;;;5095319;28;20028;-68
2022/01/31 08:41:43;;;;;;;;;;;;;;;;;;5095688;28;20023;-67
2022/01/31 08:44:11;;;;;;;32.38;12.85;;;;;;;;;;5095591;28;19927;-69
2022/01/31 08:46:41;;;;;;;24.95;9.15;;;;;;;;;;5095210;28;20024;-67
2022/01/31 08:49:10;;;;;;;15.75;5.82;;;;;;;;;;5095001;28;20019;-66
2022/01/31 08:51:38;;;;;;;10.75;3.67;;;;;;;;;;5094219;28;20035;-67
2022/01/31 08:54:08;;;;;;;8.82;2.30;;;;;;;;;;5094128;28;20073;-65
2022/01/31 08:56:40;;;;;;;8.27;3.00;;;;;;;;;;5093003;28;20098;-67
2022/01/31 08:59:07;;;;;;;9.40;3.38;;;;;;;;;;5095023;28;20444;-67
2022/01/31 09:01:34;;;;;;;7.60;3.05;;;;;;;;;;5093920;28;20028;-67
2022/01/31 09:04:02;;;;;;;11.18;5.00;;;;;;;;;;5095188;28;20028;-67
2022/01/31 09:06:30;;;;;;;22.45;6.25;;;;;;;;;;5094988;28;20024;-67
2022/01/31 09:08:57;;;;;;;10.70;5.38;;;;;;;;;;5093329;28;20024;-67
2022/01/31 09:11:24;;;;;;;16.52;6.82;;;;;;;;;;5093132;28;20027;-66
2022/01/31 09:13:50;;;;;;;17.00;8.48;;;;;;;;;;5090028;28;20020;-67
2022/01/31 09:16:17;;;;;;;17.30;6.80;;;;;;;;;;5089522;28;20035;-67
2022/01/31 09:18:43;;;;;;;17.23;7.65;;;;;;;;;;5105674;28;20047;-67
2022/01/31 09:21:10;;;;;;;15.85;9.63;;;;;;;;;;5095673;28;20042;-67
2022/01/31 09:23:37;;;;;;;16.08;7.57;;;;;;;;;;5094623;28;20498;-67
2022/01/31 09:26:04;;;;;;;21.58;9.48;;;;;;;;;;5094827;28;20028;-68
2022/01/31 09:28:30;;;;;;;15.60;7.32;;;;;;;;;;5094757;28;20044;-68
2022/01/31 09:30:57;;;;;;;15.15;6.32;;;;;;;;;;5094322;28;20031;-67
2022/01/31 09:33:25;;;;;;;16.35;7.00;;;;;;;;;;5094699;28;20020;-67
2022/01/31 09:35:51;;;;;;;14.60;6.28;;;;;;;;;;5094695;28;20039;-67
2022/01/31 09:38:22;;;;;;;17.42;8.07;;;;;;;;;;5091121;28;20115;-67
2022/01/31 09:40:48;;;;;;;20.88;9.65;;;;;;;;;;5094096;28;20065;-67
2022/01/31 09:48:33;;;;;;;16.25;6.88;;;;;;;;;;5094063;28;20031;-69
2022/01/31 09:50:59;;;;;;;11.07;5.85;;;;;;;;;;5093728;28;20020;-69
2022/01/31 09:53:26;;;;;;;23.48;6.20;;;;;;;;;;5094295;28;20020;-70
2022/01/31 09:55:53;;;;;;;17.45;6.97;;;;;;;;;;5091839;28;20048;-69
2022/01/31 09:58:19;;;;;;;12.68;5.10;;;;;;;;;;5093420;28;20020;-70
2022/01/31 10:00:45;;;;;;;8.32;3.35;;;;;;;;;;5093163;28;20059;-69
2022/01/31 10:03:12;;;;;;;12.13;5.18;;;;;;;;;;5093912;28;20480;-70
2022/01/31 10:05:39;;;;;;;12.30;4.53;;;;;;;;;;5093267;28;20020;-68
2022/01/31 10:08:13;;;;;;;10.30;3.25;;;;;;;;;;5094102;28;20038;-69
2022/01/31 10:10:44;;;;;;;;;;;;;;;;;;5092869;28;20020;-70
2022/01/31 10:16:28;;;;;;;8.43;2.60;;;;;;;;;;5092901;28;20089;-70
2022/01/31 10:19:47;;;;;;;10.43;3.60;;;;;;;;;;5110032;27;20400;-69
2022/01/31 10:23:48;;;;;;;11.10;3.95;;;;;;;;;;5110328;27;20405;-71
2022/01/31 10:30:52;;;;;;;11.18;5.32;;;;;;;;;;5173094;27;20369;-70
2022/01/31 10:33:21;;;;;;;13.40;5.75;;;;;;;;;;5132393;27;20030;-71
2022/01/31 10:35:47;;;;;;;10.63;2.67;;;;;;;;;;5145604;27;20035;-70
2022/01/31 10:38:44;;;;;;;4.45;2.08;;;;;;;;;;5110802;27;20458;-71
2022/01/31 10:54:40;;;;;;;14.35;5.97;;;;;;;;;;5109025;27;20442;-72
2022/01/31 10:57:08;;;;;;;14.63;7.43;;;;;;;;;;5095615;28;20020;-71
2022/01/31 11:03:33;;;;;;;9.32;3.35;;;;;;;;;;5108344;27;20381;-71
2022/01/31 11:06:05;;;;;;;11.07;4.20;;;;;;;;;;5108056;28;20387;-71
2022/01/31 11:10:08;;;;;;;9.85;3.30;;;;;;;;;;5109629;27;20120;-72
2022/01/31 11:12:35;;;;;;;8.93;3.70;;;;;;;;;;5110814;28;20388;-71
2022/01/31 11:16:15;;;;;;;7.53;2.67;;;;;;;;;;5110547;27;20392;-72
2022/01/31 11:18:46;;;;;;;10.93;4.22;;;;;;;;;;5110811;28;20039;-68
2022/01/31 11:21:34;;;;;;;8.73;3.47;;;;;;;;;;5111090;27;20426;-70
2022/01/31 11:24:02;;;;;;;16.30;8.93;;;;;;;;;;5110555;28;20027;-71
2022/01/31 11:27:08;;;;;;;35.85;20.10;;;;;;;;;;5111383;27;20423;-71
2022/01/31 11:29:36;;;;;;;11.23;4.07;;;;;;;;;;5107490;28;20024;-71
2022/01/31 11:32:02;;;;;;;14.02;3.15;;;;;;;;;;5110960;28;20126;-70
2022/01/31 11:36:17;;;;;;;14.70;7.35;;;;;;;;;;5110497;27;20782;-71
2022/01/31 11:39:15;;;;;;;10.02;4.25;;;;;;;;;;5172868;27;20306;-71
2022/01/31 11:41:51;;;;;;;22.85;9.02;;;;;;;;;;5152203;27;20030;-70
2022/01/31 11:44:28;;;;;;;18.80;6.93;;;;;;;;;;5151928;27;20026;-69
2022/01/31 11:46:56;;;;;;;12.75;5.07;;;;;;;;;;5152147;27;20536;-68
2022/01/31 11:51:07;;;;;;;17.65;7.00;;;;;;;;;;5110816;27;20397;-69
2022/01/31 11:55:05;;;;;;;18.90;8.48;;;;;;;;;;5110250;27;21007;-69
2022/01/31 11:57:33;;;;;;;25.83;10.98;;;;;;;;;;5110263;28;20472;-72
2022/01/31 12:03:58;;;;;;;25.23;9.93;;;;;;;;;;5131587;27;20611;-70
2022/01/31 12:06:26;;;;;;;9.88;4.10;;;;;;;;;;5110782;28;20077;-69
2022/01/31 12:08:54;;;;;;;17.73;8.38;;;;;;;;;;5117528;28;20363;-70
2022/01/31 12:11:27;;;;;;;21.75;10.02;;;;;;;;;;5122576;28;20026;-69
2022/01/31 12:16:45;;;;;;;14.65;5.80;;;;;;;;;;5110918;27;20671;-68
2022/01/31 12:24:44;;;;;;;28.65;13.98;;;;;;;;;;5110725;27;20396;-70
2022/01/31 12:31:36;;;;;;;21.63;10.15;;;;;;;;;;5111042;27;20389;-68
2022/01/31 12:34:17;;;;;;;17.45;8.43;;;;;;;;;;5110459;27;20883;-69
2022/01/31 12:36:44;;;;;;;18.73;8.73;;;;;;;;;;5125813;28;20035;-69
2022/01/31 12:40:33;;;;;;;26.70;14.75;;;;;;;;;;5110328;27;20516;-69
2022/01/31 12:44:46;;;;;;;23.67;13.50;;;;;;;;;;5111286;27;20397;-69
2022/01/31 12:47:17;;;;;;;14.93;7.25;;;;;;;;;;5110551;28;20028;-68
2022/01/31 12:49:43;;;;;;;29.08;15.70;;;;;;;;;;5110831;28;20027;-68
2022/01/31 12:52:42;;;;;;;22.88;12.75;;;;;;;;;;5110954;27;20400;-68
2022/01/31 12:55:42;;;;;;;31.08;15.75;;;;;;;;;;5110541;27;20946;-70
2022/01/31 12:58:48;;;;;;;16.45;8.13;;;;;;;;;;5111441;27;20912;-69
2022/01/31 13:01:15;;;;;;;24.45;14.40;;;;;;;;;;5109532;28;20123;-69
2022/01/31 13:03:43;;;;;;;45.92;22.17;;;;;;;;;;5111335;28;20050;-69
2022/01/31 13:06:25;;;;;;;21.15;13.27;;;;;;;;;;5111452;28;20028;-70
2022/01/31 13:08:51;;;;;;;19.77;10.27;;;;;;;;;;5109913;28;20090;-69
2022/01/31 13:11:18;;;;;;;17.40;7.60;;;;;;;;;;5107152;28;20016;-69
2022/01/31 13:13:44;;;;;;;23.27;12.75;;;;;;;;;;5110927;28;20027;-70
2022/01/31 13:16:11;;;;;;;21.45;11.20;;;;;;;;;;5110479;28;20016;-71
2022/01/31 13:18:38;;;;;;;14.25;7.20;;;;;;;;;;5110548;28;20036;-74
2022/01/31 13:21:26;;;;;;;21.98;11.60;;;;;;;;;;5131711;27;20331;-68
2022/01/31 13:23:57;;;;;;;26.48;14.15;;;;;;;;;;5119495;28;20019;-70
2022/01/31 13:26:23;;;;;;;21.33;9.93;;;;;;;;;;5131448;28;20384;-70
2022/01/31 13:28:50;;;;;;;32.08;17.45;;;;;;;;;;5130957;28;20515;-69
2022/01/31 13:31:17;;;;;;;26.30;13.77;;;;;;;;;;5131512;28;20098;-70
2022/01/31 13:33:51;;;;;;;23.67;11.70;;;;;;;;;;5131330;28;20044;-69
2022/01/31 13:36:17;;;;;;;17.30;8.32;;;;;;;;;;5130752;28;20395;-69
2022/01/31 13:38:44;;;;;;;18.92;10.10;;;;;;;;;;5131370;28;20039;-69
2022/01/31 13:41:11;;;;;;;16.52;7.78;;;;;;;;;;5131194;28;20031;-69
2022/01/31 13:43:38;;;;;;;16.20;6.95;;;;;;;;;;5130671;28;20043;-69
2022/01/31 13:46:18;;;;;;;18.42;7.75;;;;;;;;;;5130852;28;20023;-70
2022/01/31 13:51:25;;;;;;;15.07;8.23;;;;;;;;;;5130548;28;20024;-70
2022/01/31 13:53:51;;;;;;;22.30;11.30;;;;;;;;;;5131110;28;20061;-70
2022/01/31 13:56:17;;;;;;;16.77;9.00;;;;;;;;;;5131031;28;20517;-70
2022/01/31 13:58:44;;;;;;;14.18;7.57;;;;;;;;;;5130558;28;20486;-70
2022/01/31 14:01:20;;;;;;;15.10;7.22;;;;;;;;;;5112644;28;20081;-70
2022/01/31 14:03:47;;;;;;;31.77;17.13;;;;;;;;;;5130975;28;20026;-71
2022/01/31 14:06:14;;;;;;;29.77;17.58;;;;;;;;;;5130737;28;20023;-71
2022/01/31 14:08:45;;;;;;;24.35;13.57;;;;;;;;;;5112460;28;20023;-70
2022/01/31 14:11:16;;;;;;;19.85;12.15;;;;;;;;;;5130451;28;20027;-70
2022/01/31 14:13:45;;;;;;;20.27;10.25;;;;;;;;;;5130810;28;20023;-70
2022/01/31 14:16:13;;;;;;;24.42;9.85;;;;;;;;;;5130707;28;20023;-70
2022/01/31 14:18:39;;;;;;;19.65;9.95;;;;;;;;;;5130075;28;20023;-70
2022/01/31 14:21:07;;;;;;;39.28;19.13;;;;;;;;;;5111653;28;20500;-70
2022/01/31 14:23:34;;;;;;;49.20;28.45;;;;;;;;;;5110149;28;20052;-70
2022/01/31 14:26:00;;;;;;;40.78;19.50;;;;;;;;;;5109679;28;20024;-69
2022/01/31 14:28:37;;;;;;;32.88;17.95;;;;;;;;;;5109885;28;20027;-69
2022/01/31 14:31:04;;;;;;;28.77;15.00;;;;;;;;;;5105693;28;20026;-70
2022/01/31 14:33:31;;;;;;;31.52;15.57;;;;;;;;;;5095903;28;20078;-70
2022/01/31 14:36:01;;;;;;;27.10;9.77;;;;;;;;;;5096392;28;20016;-70
2022/01/31 14:38:33;;;;;;;21.85;10.40;;;;;;;;;;5096215;28;20031;-70
2022/01/31 14:49:04;;;;;;;25.70;11.27;;;;;;;;;;5096082;28;20061;-69
2022/01/31 14:51:31;;;;;;;28.70;10.52;;;;;;;;;;5077739;28;20035;-70
2022/01/31 14:54:01;;;;;;;27.95;9.70;;;;;;;;;;5095640;28;20019;-71
2022/01/31 14:56:29;;;;;;;32.08;10.02;;;;;;;;;;5095956;28;20028;-71
2022/01/31 14:58:56;;;;;;;24.50;10.88;;;;;;;;;;5095671;28;20016;-70
2022/01/31 15:01:22;;;;;;;23.55;9.18;;;;;;;;;;5095415;28;20499;-71
2022/01/31 15:03:49;;;;;;;22.15;10.85;;;;;;;;;;5095636;28;20024;-70
2022/01/31 15:06:15;;;;;;;48.80;24.58;;;;;;;;;;5077478;28;20502;-71
2022/01/31 15:08:42;;;;;;;59.40;28.10;;;;;;;;;;5095232;28;20023;-69
2022/01/31 15:11:09;;;;;;;61.10;30.92;;;;;;;;;;5077334;28;20477;-71
2022/01/31 15:13:40;;;;;;;65.40;35.13;;;;;;;;;;5095800;28;20095;-70
2022/01/31 15:16:08;;;;;;;65.13;34.00;;;;;;;;;;5095139;28;20047;-70
2022/01/31 15:18:37;;;;;;;62.10;34.22;;;;;;;;;;5095443;28;20099;-69
2022/01/31 15:21:05;;;;;;;59.65;38.65;;;;;;;;;;5108960;28;20047;-70
2022/01/31 15:23:40;;;;;;;66.88;43.50;;;;;;;;;;5114300;28;20414;-70
2022/01/31 15:26:07;;;;;;;53.33;33.40;;;;;;;;;;5115911;28;20024;-69
2022/01/31 15:28:34;;;;;;;55.00;33.58;;;;;;;;;;5113955;28;20023;-69
2022/01/31 15:31:01;;;;;;;61.28;35.60;;;;;;;;;;5115607;28;20081;-70
2022/01/31 15:33:27;;;;;;;48.55;26.42;;;;;;;;;;5115808;28;20023;-70
2022/01/31 15:35:55;;;;;;;87.05;46.50;;;;;;;;;;5115085;28;20082;-70
2022/01/31 15:38:25;;;;;;;67.82;37.20;;;;;;;;;;5115472;28;20094;-69
2022/01/31 15:40:53;;;;;;;67.38;38.08;;;;;;;;;;5113976;28;20119;-70
2022/01/31 15:43:20;;;;;;;47.10;27.70;;;;;;;;;;5112627;28;20016;-70
2022/01/31 15:45:46;;;;;;;47.28;29.08;;;;;;;;;;5115281;28;20020;-71